Granville, West Virginia
Current Conditions -  °F | °C
As of 4:53 AM on Friday 31 Oct 2014 (Local Time) from KMGW Reporting Station
Overcast Overcast  
Wind Chill: 46°   Ceiling: 4500
Heat Index: 46°   Visibility: 10mi
Dew Point: 38°   Wind: 0mph
Humidity: 73%   Direction: NA
Pressure: 29.99"   Gusts: NA
Location:  39.65°N, 79.99°W
Report Text: KMGW 310853Z AUTO 00000KT 10SM OVC045 08/03 A2999 RMK AO2 SLP160 T00780033 56009 TSNO
Loading
Personal Weather Stations






























Interactive Weather Map
Tropical Storm Tracking
New forecast layout! Learn more

10-Day Weather Forecast

Advertisements
Track Severe Weather on mobile